sensor_id;sensor_type;location;lat;lon;timestamp;pressure;altitude;pressure_sealevel;temperature;humidity
37068;BME280;22982;42.848;25.468;2023-03-01T00:00:48;96959.56;;;4.93;100.00
37068;BME280;22982;42.848;25.468;2023-03-01T00:05:50;96956.16;;;4.91;100.00
37068;BME280;22982;42.848;25.468;2023-03-01T00:16:09;96936.09;;;4.96;100.00
37068;BME280;22982;42.848;25.468;2023-03-01T00:21:12;96948.91;;;5.02;100.00
37068;BME280;22982;42.848;25.468;2023-03-01T00:26:15;96931.34;;;4.79;100.00
37068;BME280;22982;42.848;25.468;2023-03-01T00:31:21;96946.66;;;4.90;100.00
37068;BME280;22982;42.848;25.468;2023-03-01T00:36:29;96929.56;;;4.81;100.00
37068;BME280;22982;42.848;25.468;2023-03-01T00:41:32;96924.59;;;4.73;100.00
37068;BME280;22982;42.848;25.468;2023-03-01T00:46:37;96913.84;;;4.86;100.00
37068;BME280;22982;42.848;25.468;2023-03-01T00:51:39;96911.06;;;4.93;100.00
37068;BME280;22982;42.848;25.468;2023-03-01T00:56:43;96908.38;;;4.95;100.00
37068;BME280;22982;42.848;25.468;2023-03-01T01:01:46;96900.66;;;4.93;100.00
37068;BME280;22982;42.848;25.468;2023-03-01T01:06:48;96884.84;;;5.01;100.00
37068;BME280;22982;42.848;25.468;2023-03-01T01:11:51;96890.88;;;5.02;100.00
37068;BME280;22982;42.848;25.468;2023-03-01T01:16:53;96893.44;;;5.03;100.00
37068;BME280;22982;42.848;25.468;2023-03-01T01:21:55;96894.09;;;5.11;100.00
37068;BME280;22982;42.848;25.468;2023-03-01T01:26:58;96881.53;;;5.26;100.00
37068;BME280;22982;42.848;25.468;2023-03-01T01:32:01;96885.91;;;5.24;100.00
37068;BME280;22982;42.848;25.468;2023-03-01T01:37:04;96908.03;;;5.07;100.00
37068;BME280;22982;42.848;25.468;2023-03-01T01:42:15;96904.56;;;5.08;100.00
37068;BME280;22982;42.848;25.468;2023-03-01T01:47:20;96888.88;;;5.11;100.00
37068;BME280;22982;42.848;25.468;2023-03-01T01:52:30;96892.91;;;5.22;100.00
37068;BME280;22982;42.848;25.468;2023-03-01T01:57:38;96886.97;;;5.16;100.00
37068;BME280;22982;42.848;25.468;2023-03-01T02:02:43;96901.63;;;5.21;100.00
37068;BME280;22982;42.848;25.468;2023-03-01T02:07:47;96890.72;;;5.08;100.00
37068;BME280;22982;42.848;25.468;2023-03-01T02:12:54;96873.22;;;5.13;100.00
37068;BME280;22982;42.848;25.468;2023-03-01T02:17:58;96886.28;;;5.11;100.00
37068;BME280;22982;42.848;25.468;2023-03-01T02:23:01;96877.34;;;5.20;100.00
37068;BME280;22982;42.848;25.468;2023-03-01T02:33:18;96841.72;;;4.94;100.00
37068;BME280;22982;42.848;25.468;2023-03-01T02:38:21;96866.41;;;5.09;100.00
37068;BME280;22982;42.848;25.468;2023-03-01T02:43:28;96877.47;;;5.17;100.00
37068;BME280;22982;42.848;25.468;2023-03-01T02:53:59;96868.16;;;5.08;100.00
37068;BME280;22982;42.848;25.468;2023-03-01T02:59:06;96868.47;;;4.97;100.00
37068;BME280;22982;42.848;25.468;2023-03-01T03:04:15;96875.81;;;5.13;100.00
37068;BME280;22982;42.848;25.468;2023-03-01T03:09:22;96833.75;;;5.00;100.00
37068;BME280;22982;42.848;25.468;2023-03-01T03:14:25;96856.25;;;5.01;100.00
37068;BME280;22982;42.848;25.468;2023-03-01T03:19:27;96866.56;;;5.04;100.00
37068;BME280;22982;42.848;25.468;2023-03-01T03:24:30;96851.59;;;5.12;100.00
37068;BME280;22982;42.848;25.468;2023-03-01T03:29:40;96856.81;;;5.11;100.00
37068;BME280;22982;42.848;25.468;2023-03-01T03:34:42;96847.19;;;5.14;100.00
37068;BME280;22982;42.848;25.468;2023-03-01T03:39:44;96872.22;;;5.18;100.00
37068;BME280;22982;42.848;25.468;2023-03-01T03:44:46;96872.22;;;4.87;100.00
37068;BME280;22982;42.848;25.468;2023-03-01T03:49:49;96873.78;;;4.93;100.00
37068;BME280;22982;42.848;25.468;2023-03-01T03:54:51;96849.03;;;4.81;100.00
37068;BME280;22982;42.848;25.468;2023-03-01T03:59:53;96878.22;;;4.89;100.00
37068;BME280;22982;42.848;25.468;2023-03-01T04:04:55;96866.41;;;4.79;100.00
37068;BME280;22982;42.848;25.468;2023-03-01T04:09:58;96837.25;;;4.68;100.00
37068;BME280;22982;42.848;25.468;2023-03-01T04:15:01;96860.19;;;4.85;100.00
37068;BME280;22982;42.848;25.468;2023-03-01T04:20:03;96855.25;;;4.75;100.00
37068;BME280;22982;42.848;25.468;2023-03-01T04:25:07;96879.03;;;4.91;100.00
37068;BME280;22982;42.848;25.468;2023-03-01T04:30:10;96857.59;;;4.85;100.00
37068;BME280;22982;42.848;25.468;2023-03-01T04:35:12;96868.34;;;4.71;100.00
37068;BME280;22982;42.848;25.468;2023-03-01T04:40:15;96875.00;;;4.81;100.00
37068;BME280;22982;42.848;25.468;2023-03-01T04:45:18;96864.69;;;4.78;100.00
37068;BME280;22982;42.848;25.468;2023-03-01T04:50:21;96854.88;;;4.88;100.00
37068;BME280;22982;42.848;25.468;2023-03-01T04:55:28;96864.69;;;4.78;100.00
37068;BME280;22982;42.848;25.468;2023-03-01T05:00:31;96860.34;;;4.78;100.00
37068;BME280;22982;42.848;25.468;2023-03-01T05:05:36;96860.50;;;5.04;100.00
37068;BME280;22982;42.848;25.468;2023-03-01T05:10:39;96847.72;;;4.96;100.00
37068;BME280;22982;42.848;25.468;2023-03-01T05:15:42;96847.19;;;4.85;100.00
37068;BME280;22982;42.848;25.468;2023-03-01T05:20:45;96858.59;;;4.79;100.00
37068;BME280;22982;42.848;25.468;2023-03-01T05:25:48;96858.13;;;4.96;100.00
37068;BME280;22982;42.848;25.468;2023-03-01T05:30:51;96869.34;;;4.96;100.00
37068;BME280;22982;42.848;25.468;2023-03-01T05:35:53;96877.00;;;5.03;100.00
37068;BME280;22982;42.848;25.468;2023-03-01T05:40:56;96860.28;;;5.11;100.00
37068;BME280;22982;42.848;25.468;2023-03-01T05:45:58;96856.75;;;5.14;100.00
37068;BME280;22982;42.848;25.468;2023-03-01T05:51:02;96867.97;;;5.14;100.00
37068;BME280;22982;42.848;25.468;2023-03-01T05:56:04;96884.25;;;5.21;100.00
37068;BME280;22982;42.848;25.468;2023-03-01T06:01:11;96860.28;;;5.11;100.00
37068;BME280;22982;42.848;25.468;2023-03-01T06:06:15;96859.03;;;5.25;100.00
37068;BME280;22982;42.848;25.468;2023-03-01T06:11:18;96869.16;;;5.34;100.00
37068;BME280;22982;42.848;25.468;2023-03-01T06:16:20;96875.66;;;5.19;100.00
37068;BME280;22982;42.848;25.468;2023-03-01T06:21:23;96882.53;;;5.20;100.00
37068;BME280;22982;42.848;25.468;2023-03-01T06:26:25;96878.66;;;5.05;100.00
37068;BME280;22982;42.848;25.468;2023-03-01T06:31:27;96858.38;;;4.87;100.00
37068;BME280;22982;42.848;25.468;2023-03-01T06:36:30;96894.00;;;5.13;100.00
37068;BME280;22982;42.848;25.468;2023-03-01T06:41:40;96857.41;;;4.91;100.00
37068;BME280;22982;42.848;25.468;2023-03-01T06:46:48;96858.97;;;4.96;100.00
37068;BME280;22982;42.848;25.468;2023-03-01T06:52:04;96826.72;;;4.74;100.00
37068;BME280;22982;42.848;25.468;2023-03-01T06:57:15;96855.94;;;4.80;100.00
37068;BME280;22982;42.848;25.468;2023-03-01T07:02:17;96840.75;;;4.67;100.00
37068;BME280;22982;42.848;25.468;2023-03-01T07:07:20;96847.50;;;4.74;100.00
37068;BME280;22982;42.848;25.468;2023-03-01T07:12:23;96879.97;;;4.89;100.00
37068;BME280;22982;42.848;25.468;2023-03-01T07:17:25;96867.16;;;4.83;100.00
37068;BME280;22982;42.848;25.468;2023-03-01T07:22:27;96862.47;;;4.95;100.00
37068;BME280;22982;42.848;25.468;2023-03-01T07:27:30;96873.28;;;5.11;100.00
37068;BME280;22982;42.848;25.468;2023-03-01T07:32:32;96893.19;;;5.12;100.00
37068;BME280;22982;42.848;25.468;2023-03-01T07:37:35;96885.16;;;5.20;100.00
37068;BME280;22982;42.848;25.468;2023-03-01T07:42:37;96839.03;;;4.97;100.00
37068;BME280;22982;42.848;25.468;2023-03-01T07:47:39;96896.19;;;5.28;100.00
37068;BME280;22982;42.848;25.468;2023-03-01T07:52:41;96895.88;;;5.39;100.00
37068;BME280;22982;42.848;25.468;2023-03-01T07:57:44;96876.34;;;5.26;100.00
37068;BME280;22982;42.848;25.468;2023-03-01T08:02:46;96890.94;;;5.58;100.00
37068;BME280;22982;42.848;25.468;2023-03-01T08:07:48;96876.97;;;5.62;100.00
37068;BME280;22982;42.848;25.468;2023-03-01T08:12:52;96872.53;;;5.66;100.00
37068;BME280;22982;42.848;25.468;2023-03-01T08:17:54;96874.03;;;5.73;100.00
37068;BME280;22982;42.848;25.468;2023-03-01T08:22:57;96876.16;;;5.60;100.00
37068;BME280;22982;42.848;25.468;2023-03-01T08:28:00;96861.41;;;5.61;100.00
37068;BME280;22982;42.848;25.468;2023-03-01T08:33:02;96868.13;;;5.68;100.00
37068;BME280;22982;42.848;25.468;2023-03-01T08:38:05;96883.28;;;6.10;100.00
37068;BME280;22982;42.848;25.468;2023-03-01T08:43:07;96872.97;;;6.07;100.00
37068;BME280;22982;42.848;25.468;2023-03-01T08:48:09;96867.09;;;6.02;100.00
37068;BME280;22982;42.848;25.468;2023-03-01T08:53:12;96861.44;;;6.14;100.00
37068;BME280;22982;42.848;25.468;2023-03-01T08:58:14;96866.97;;;6.05;100.00
37068;BME280;22982;42.848;25.468;2023-03-01T09:03:16;96872.16;;;6.05;100.00
37068;BME280;22982;42.848;25.468;2023-03-01T09:08:19;96873.19;;;6.01;100.00
37068;BME280;22982;42.848;25.468;2023-03-01T09:13:22;96876.59;;;6.03;100.00
37068;BME280;22982;42.848;25.468;2023-03-01T09:18:28;96902.78;;;5.98;100.00
37068;BME280;22982;42.848;25.468;2023-03-01T09:23:31;96854.03;;;5.75;100.00
37068;BME280;22982;42.848;25.468;2023-03-01T09:28:33;96871.53;;;5.98;100.00
37068;BME280;22982;42.848;25.468;2023-03-01T09:33:35;96876.94;;;5.90;100.00
37068;BME280;22982;42.848;25.468;2023-03-01T09:38:38;96859.84;;;5.82;100.00
37068;BME280;22982;42.848;25.468;2023-03-01T09:49:25;96855.22;;;5.91;100.00
37068;BME280;22982;42.848;25.468;2023-03-01T09:54:28;96867.09;;;6.02;100.00
37068;BME280;22982;42.848;25.468;2023-03-01T10:10:26;96840.94;;;6.05;100.00
37068;BME280;22982;42.848;25.468;2023-03-01T10:15:43;96843.69;;;6.00;100.00
37068;BME280;22982;42.848;25.468;2023-03-01T10:20:53;96862.75;;;6.27;100.00
37068;BME280;22982;42.848;25.468;2023-03-01T10:26:07;96841.72;;;6.07;100.00
37068;BME280;22982;42.848;25.468;2023-03-01T10:31:19;96838.63;;;6.22;100.00
37068;BME280;22982;42.848;25.468;2023-03-01T10:36:24;96832.81;;;6.14;100.00
37068;BME280;22982;42.848;25.468;2023-03-01T10:41:27;96815.59;;;6.10;100.00
37068;BME280;22982;42.848;25.468;2023-03-01T10:46:32;96813.97;;;6.07;100.00
37068;BME280;22982;42.848;25.468;2023-03-01T10:51:36;96820.66;;;6.40;100.00
37068;BME280;22982;42.848;25.468;2023-03-01T10:56:53;96823.75;;;6.51;100.00
37068;BME280;22982;42.848;25.468;2023-03-01T11:02:26;96831.50;;;6.53;100.00
37068;BME280;22982;42.848;25.468;2023-03-01T11:07:30;96789.72;;;6.30;100.00
37068;BME280;22982;42.848;25.468;2023-03-01T11:12:33;96816.06;;;6.21;100.00
37068;BME280;22982;42.848;25.468;2023-03-01T11:17:36;96789.97;;;5.98;100.00
37068;BME280;22982;42.848;25.468;2023-03-01T11:23:04;96791.31;;;5.83;100.00
37068;BME280;22982;42.848;25.468;2023-03-01T11:28:15;96775.22;;;5.98;100.00
37068;BME280;22982;42.848;25.468;2023-03-01T11:33:43;96791.53;;;6.28;100.00
37068;BME280;22982;42.848;25.468;2023-03-01T11:38:47;96758.22;;;6.13;100.00
37068;BME280;22982;42.848;25.468;2023-03-01T11:43:55;96765.88;;;6.41;100.00
37068;BME280;22982;42.848;25.468;2023-03-01T12:00:02;96762.41;;;6.17;100.00
37068;BME280;22982;42.848;25.468;2023-03-01T12:11:01;96742.31;;;6.21;100.00
37068;BME280;22982;42.848;25.468;2023-03-01T12:16:11;96767.38;;;6.23;100.00
37068;BME280;22982;42.848;25.468;2023-03-01T12:21:27;96755.06;;;6.03;100.00
37068;BME280;22982;42.848;25.468;2023-03-01T12:26:39;96767.34;;;6.00;100.00
37068;BME280;22982;42.848;25.468;2023-03-01T12:37:33;96737.41;;;5.60;100.00
37068;BME280;22982;42.848;25.468;2023-03-01T12:53:29;96740.28;;;5.79;100.00
37068;BME280;22982;42.848;25.468;2023-03-01T13:09:28;96743.75;;;6.04;100.00
37068;BME280;22982;42.848;25.468;2023-03-01T13:19:34;96733.03;;;6.13;100.00
37068;BME280;22982;42.848;25.468;2023-03-01T13:24:41;96741.50;;;6.44;100.00
37068;BME280;22982;42.848;25.468;2023-03-01T13:29:47;96732.94;;;6.40;100.00
37068;BME280;22982;42.848;25.468;2023-03-01T13:34:55;96739.91;;;6.16;100.00
37068;BME280;22982;42.848;25.468;2023-03-01T13:39:59;96721.66;;;6.16;100.00
37068;BME280;22982;42.848;25.468;2023-03-01T13:45:19;96717.50;;;6.10;100.00
37068;BME280;22982;42.848;25.468;2023-03-01T13:50:25;96733.75;;;6.17;100.00
37068;BME280;22982;42.848;25.468;2023-03-01T14:00:45;96714.84;;;6.12;100.00
37068;BME280;22982;42.848;25.468;2023-03-01T14:06:03;96725.56;;;6.28;100.00
37068;BME280;22982;42.848;25.468;2023-03-01T14:22:21;96721.41;;;5.99;100.00
37068;BME280;22982;42.848;25.468;2023-03-01T14:27:32;96711.97;;;5.94;100.00
37068;BME280;22982;42.848;25.468;2023-03-01T14:32:35;96718.94;;;6.19;100.00
37068;BME280;22982;42.848;25.468;2023-03-01T14:37:39;96708.09;;;6.06;100.00
37068;BME280;22982;42.848;25.468;2023-03-01T14:42:42;96712.47;;;6.06;100.00
37068;BME280;22982;42.848;25.468;2023-03-01T14:47:45;96714.72;;;5.90;100.00
37068;BME280;22982;42.848;25.468;2023-03-01T14:52:50;96723.50;;;5.87;100.00
37068;BME280;22982;42.848;25.468;2023-03-01T14:57:53;96708.50;;;5.94;100.00
37068;BME280;22982;42.848;25.468;2023-03-01T15:03:01;96709.00;;;5.80;100.00
37068;BME280;22982;42.848;25.468;2023-03-01T15:08:05;96721.88;;;6.81;100.00
37068;BME280;22982;42.848;25.468;2023-03-01T15:13:25;96712.47;;;6.77;100.00
37068;BME280;22982;42.848;25.468;2023-03-01T15:18:29;96702.69;;;7.05;100.00
37068;BME280;22982;42.848;25.468;2023-03-01T15:23:32;96700.06;;;6.61;100.00
37068;BME280;22982;42.848;25.468;2023-03-01T15:28:49;96719.44;;;6.54;100.00
37068;BME280;22982;42.848;25.468;2023-03-01T15:34:08;96714.56;;;6.68;100.00
37068;BME280;22982;42.848;25.468;2023-03-01T15:39:52;96713.00;;;6.63;100.00
37068;BME280;22982;42.848;25.468;2023-03-01T15:50:28;96741.13;;;6.55;100.00
37068;BME280;22982;42.848;25.468;2023-03-01T15:55:32;96736.00;;;6.51;100.00
37068;BME280;22982;42.848;25.468;2023-03-01T16:00:35;96721.53;;;6.19;100.00
37068;BME280;22982;42.848;25.468;2023-03-01T16:05:38;96705.44;;;6.08;100.00
37068;BME280;22982;42.848;25.468;2023-03-01T16:10:41;96716.34;;;5.92;100.00
37068;BME280;22982;42.848;25.468;2023-03-01T16:15:47;96705.56;;;5.78;100.00
37068;BME280;22982;42.848;25.468;2023-03-01T16:20:49;96719.88;;;5.66;100.00
37068;BME280;22982;42.848;25.468;2023-03-01T16:25:52;96720.91;;;5.61;100.00
37068;BME280;22982;42.848;25.468;2023-03-01T16:30:54;96732.81;;;5.68;100.00
37068;BME280;22982;42.848;25.468;2023-03-01T16:35:57;96738.22;;;5.62;100.00
37068;BME280;22982;42.848;25.468;2023-03-01T16:41:02;96757.25;;;5.64;100.00
37068;BME280;22982;42.848;25.468;2023-03-01T16:46:12;96744.31;;;5.87;100.00
37068;BME280;22982;42.848;25.468;2023-03-01T16:51:16;96746.28;;;5.81;100.00
37068;BME280;22982;42.848;25.468;2023-03-01T16:56:19;96735.16;;;5.75;100.00
37068;BME280;22982;42.848;25.468;2023-03-01T17:01:21;96750.41;;;5.86;100.00
37068;BME280;22982;42.848;25.468;2023-03-01T17:06:26;96719.13;;;5.63;100.00
37068;BME280;22982;42.848;25.468;2023-03-01T17:11:29;96734.13;;;5.54;100.00
37068;BME280;22982;42.848;25.468;2023-03-01T17:16:31;96723.25;;;5.42;100.00
37068;BME280;22982;42.848;25.468;2023-03-01T17:21:34;96716.06;;;5.23;100.00
37068;BME280;22982;42.848;25.468;2023-03-01T17:26:37;96717.72;;;5.26;100.00
37068;BME280;22982;42.848;25.468;2023-03-01T17:31:40;96710.66;;;5.29;100.00
37068;BME280;22982;42.848;25.468;2023-03-01T17:36:42;96702.19;;;5.24;100.00
37068;BME280;22982;42.848;25.468;2023-03-01T17:41:45;96706.63;;;5.21;100.00
37068;BME280;22982;42.848;25.468;2023-03-01T17:46:47;96715.84;;;5.29;100.00
37068;BME280;22982;42.848;25.468;2023-03-01T17:51:50;96712.63;;;5.23;100.00
37068;BME280;22982;42.848;25.468;2023-03-01T17:56:53;96712.81;;;5.43;100.00
37068;BME280;22982;42.848;25.468;2023-03-01T18:01:57;96708.66;;;5.37;100.00
37068;BME280;22982;42.848;25.468;2023-03-01T18:06:59;96692.41;;;5.31;100.00
37068;BME280;22982;42.848;25.468;2023-03-01T18:12:02;96702.63;;;5.37;100.00
37068;BME280;22982;42.848;25.468;2023-03-01T18:17:04;96720.72;;;5.40;100.00
37068;BME280;22982;42.848;25.468;2023-03-01T18:22:13;96726.44;;;5.51;100.00
37068;BME280;22982;42.848;25.468;2023-03-01T18:27:16;96730.88;;;5.48;100.00
37068;BME280;22982;42.848;25.468;2023-03-01T18:32:18;96714.47;;;5.46;100.00
37068;BME280;22982;42.848;25.468;2023-03-01T18:37:23;96712.50;;;5.52;100.00
37068;BME280;22982;42.848;25.468;2023-03-01T18:42:25;96712.56;;;5.51;100.00
37068;BME280;22982;42.848;25.468;2023-03-01T18:47:28;96714.22;;;5.53;100.00
37068;BME280;22982;42.848;25.468;2023-03-01T18:52:30;96690.94;;;5.49;100.00
37068;BME280;22982;42.848;25.468;2023-03-01T18:57:33;96704.22;;;5.41;100.00
37068;BME280;22982;42.848;25.468;2023-03-01T19:02:35;96695.81;;;5.33;100.00
37068;BME280;22982;42.848;25.468;2023-03-01T19:07:59;96696.50;;;5.38;100.00
37068;BME280;22982;42.848;25.468;2023-03-01T19:13:02;96702.72;;;5.34;100.00
37068;BME280;22982;42.848;25.468;2023-03-01T19:18:05;96701.31;;;5.24;100.00
37068;BME280;22982;42.848;25.468;2023-03-01T19:23:09;96678.00;;;5.47;100.00
37068;BME280;22982;42.848;25.468;2023-03-01T19:28:14;96675.91;;;5.59;100.00
37068;BME280;22982;42.848;25.468;2023-03-01T19:33:16;96689.72;;;5.61;100.00
37068;BME280;22982;42.848;25.468;2023-03-01T19:38:18;96686.63;;;5.49;100.00
37068;BME280;22982;42.848;25.468;2023-03-01T19:43:22;96699.00;;;5.68;100.00
37068;BME280;22982;42.848;25.468;2023-03-01T19:48:25;96690.84;;;5.79;100.00
37068;BME280;22982;42.848;25.468;2023-03-01T19:53:27;96705.78;;;5.72;100.00
37068;BME280;22982;42.848;25.468;2023-03-01T19:58:31;96698.72;;;5.50;100.00
37068;BME280;22982;42.848;25.468;2023-03-01T20:03:34;96703.72;;;5.56;100.00
37068;BME280;22982;42.848;25.468;2023-03-01T20:08:37;96693.91;;;5.38;100.00
37068;BME280;22982;42.848;25.468;2023-03-01T20:13:40;96708.31;;;5.22;100.00
37068;BME280;22982;42.848;25.468;2023-03-01T20:18:42;96688.72;;;5.11;100.00
37068;BME280;22982;42.848;25.468;2023-03-01T20:23:47;96698.56;;;5.28;100.00
37068;BME280;22982;42.848;25.468;2023-03-01T20:28:52;96719.88;;;5.40;100.00
37068;BME280;22982;42.848;25.468;2023-03-01T20:33:56;96713.72;;;5.42;100.00
37068;BME280;22982;42.848;25.468;2023-03-01T20:38:59;96706.03;;;5.39;100.00
37068;BME280;22982;42.848;25.468;2023-03-01T20:44:01;96710.50;;;5.61;100.00
37068;BME280;22982;42.848;25.468;2023-03-01T20:49:07;96700.28;;;5.54;100.00
37068;BME280;22982;42.848;25.468;2023-03-01T20:54:11;96693.59;;;5.47;100.00
37068;BME280;22982;42.848;25.468;2023-03-01T20:59:14;96690.13;;;5.48;100.00
37068;BME280;22982;42.848;25.468;2023-03-01T21:04:17;96677.50;;;5.36;100.00
37068;BME280;22982;42.848;25.468;2023-03-01T21:09:19;96696.16;;;5.49;100.00
37068;BME280;22982;42.848;25.468;2023-03-01T21:14:22;96687.47;;;5.50;100.00
37068;BME280;22982;42.848;25.468;2023-03-01T21:19:25;96697.22;;;5.43;100.00
37068;BME280;22982;42.848;25.468;2023-03-01T21:24:27;96704.00;;;5.47;100.00
37068;BME280;22982;42.848;25.468;2023-03-01T21:29:29;96709.22;;;5.47;100.00
37068;BME280;22982;42.848;25.468;2023-03-01T21:34:32;96715.91;;;5.54;100.00
37068;BME280;22982;42.848;25.468;2023-03-01T21:39:35;96712.06;;;5.66;100.00
37068;BME280;22982;42.848;25.468;2023-03-01T21:44:37;96703.16;;;5.47;100.00
37068;BME280;22982;42.848;25.468;2023-03-01T21:49:40;96705.06;;;5.42;100.00
37068;BME280;22982;42.848;25.468;2023-03-01T21:54:43;96696.16;;;5.49;100.00
37068;BME280;22982;42.848;25.468;2023-03-01T21:59:45;96706.41;;;5.53;100.00
37068;BME280;22982;42.848;25.468;2023-03-01T22:04:51;96703.72;;;5.56;100.00
37068;BME280;22982;42.848;25.468;2023-03-01T22:10:00;96701.91;;;5.59;100.00
37068;BME280;22982;42.848;25.468;2023-03-01T22:15:03;96703.72;;;5.56;100.00
37068;BME280;22982;42.848;25.468;2023-03-01T22:20:06;96675.25;;;5.52;100.00
37068;BME280;22982;42.848;25.468;2023-03-01T22:25:09;96708.19;;;5.78;100.00
37068;BME280;22982;42.848;25.468;2023-03-01T22:30:12;96695.03;;;5.83;100.00
37068;BME280;22982;42.848;25.468;2023-03-01T22:35:15;96687.63;;;5.70;100.00
37068;BME280;22982;42.848;25.468;2023-03-01T22:40:17;96700.28;;;5.81;100.00
37068;BME280;22982;42.848;25.468;2023-03-01T22:45:19;96702.34;;;5.71;100.00
37068;BME280;22982;42.848;25.468;2023-03-01T22:50:21;96697.56;;;5.84;100.00
37068;BME280;22982;42.848;25.468;2023-03-01T22:55:26;96714.69;;;5.91;100.00
37068;BME280;22982;42.848;25.468;2023-03-01T23:00:28;96708.19;;;5.78;100.00
37068;BME280;22982;42.848;25.468;2023-03-01T23:05:31;96702.88;;;5.81;100.00
37068;BME280;22982;42.848;25.468;2023-03-01T23:10:33;96697.09;;;5.73;100.00
37068;BME280;22982;42.848;25.468;2023-03-01T23:15:35;96704.56;;;5.57;100.00
37068;BME280;22982;42.848;25.468;2023-03-01T23:20:37;96700.19;;;5.57;100.00
37068;BME280;22982;42.848;25.468;2023-03-01T23:25:39;96699.47;;;5.54;100.00
37068;BME280;22982;42.848;25.468;2023-03-01T23:30:42;96693.56;;;5.49;100.00
37068;BME280;22982;42.848;25.468;2023-03-01T23:35:46;96692.50;;;5.54;100.00
37068;BME280;22982;42.848;25.468;2023-03-01T23:40:48;96693.19;;;5.60;100.00
37068;BME280;22982;42.848;25.468;2023-03-01T23:45:53;96702.84;;;5.56;100.00
37068;BME280;22982;42.848;25.468;2023-03-01T23:51:02;96697.34;;;5.65;100.00
37068;BME280;22982;42.848;25.468;2023-03-01T23:56:05;96712.28;;;5.60;100.00
